sensor_id;sensor_type;location;lat;lon;timestamp;P1;durP1;ratioP1;P2;durP2;ratioP2
6452;SDS011;3259;51.080;13.712;2022-07-04T00:01:39;3.92;;;1.55;;
6452;SDS011;3259;51.080;13.712;2022-07-04T00:04:27;1.70;;;1.60;;
6452;SDS011;3259;51.080;13.712;2022-07-04T00:07:16;2.97;;;1.30;;
6452;SDS011;3259;51.080;13.712;2022-07-04T00:10:06;2.35;;;1.55;;
6452;SDS011;3259;51.080;13.712;2022-07-04T00:12:57;4.75;;;1.70;;
6452;SDS011;3259;51.080;13.712;2022-07-04T00:15:46;2.63;;;1.60;;
6452;SDS011;3259;51.080;13.712;2022-07-04T00:18:35;1.60;;;1.50;;
6452;SDS011;3259;51.080;13.712;2022-07-04T00:21:25;1.70;;;1.58;;
6452;SDS011;3259;51.080;13.712;2022-07-04T00:24:14;1.40;;;1.30;;
6452;SDS011;3259;51.080;13.712;2022-07-04T00:27:03;1.48;;;1.38;;
6452;SDS011;3259;51.080;13.712;2022-07-04T00:29:53;2.33;;;2.13;;
6452;SDS011;3259;51.080;13.712;2022-07-04T00:32:41;2.42;;;2.22;;
6452;SDS011;3259;51.080;13.712;2022-07-04T00:35:30;1.50;;;1.40;;
6452;SDS011;3259;51.080;13.712;2022-07-04T00:38:19;1.58;;;1.48;;
6452;SDS011;3259;51.080;13.712;2022-07-04T00:41:07;1.80;;;1.70;;
6452;SDS011;3259;51.080;13.712;2022-07-04T00:44:02;1.90;;;1.40;;
6452;SDS011;3259;51.080;13.712;2022-07-04T00:47:01;1.45;;;1.35;;
6452;SDS011;3259;51.080;13.712;2022-07-04T00:49:49;1.38;;;1.20;;
6452;SDS011;3259;51.080;13.712;2022-07-04T00:52:38;2.10;;;1.30;;
6452;SDS011;3259;51.080;13.712;2022-07-04T00:55:27;2.05;;;1.33;;
6452;SDS011;3259;51.080;13.712;2022-07-04T00:58:16;2.35;;;1.52;;
6452;SDS011;3259;51.080;13.712;2022-07-04T01:01:07;5.00;;;1.63;;
6452;SDS011;3259;51.080;13.712;2022-07-04T01:03:57;1.33;;;1.27;;
6452;SDS011;3259;51.080;13.712;2022-07-04T01:06:46;2.20;;;1.30;;
6452;SDS011;3259;51.080;13.712;2022-07-04T01:09:36;0.90;;;0.90;;
6452;SDS011;3259;51.080;13.712;2022-07-04T01:12:25;1.00;;;1.00;;
6452;SDS011;3259;51.080;13.712;2022-07-04T01:15:14;1.20;;;1.20;;
6452;SDS011;3259;51.080;13.712;2022-07-04T01:18:02;1.13;;;1.05;;
6452;SDS011;3259;51.080;13.712;2022-07-04T01:20:52;1.40;;;1.10;;
6452;SDS011;3259;51.080;13.712;2022-07-04T01:23:41;2.42;;;0.93;;
6452;SDS011;3259;51.080;13.712;2022-07-04T01:26:29;1.95;;;0.77;;
6452;SDS011;3259;51.080;13.712;2022-07-04T01:29:18;1.08;;;1.08;;
6452;SDS011;3259;51.080;13.712;2022-07-04T01:32:08;2.72;;;0.90;;
6452;SDS011;3259;51.080;13.712;2022-07-04T01:34:57;0.73;;;0.73;;
6452;SDS011;3259;51.080;13.712;2022-07-04T01:37:47;0.60;;;0.60;;
6452;SDS011;3259;51.080;13.712;2022-07-04T01:40:35;1.00;;;0.50;;
6452;SDS011;3259;51.080;13.712;2022-07-04T01:43:24;0.60;;;0.60;;
6452;SDS011;3259;51.080;13.712;2022-07-04T01:46:12;1.35;;;0.57;;
6452;SDS011;3259;51.080;13.712;2022-07-04T01:49:01;1.88;;;0.55;;
6452;SDS011;3259;51.080;13.712;2022-07-04T01:51:50;1.10;;;0.60;;
6452;SDS011;3259;51.080;13.712;2022-07-04T01:54:41;3.33;;;0.70;;
6452;SDS011;3259;51.080;13.712;2022-07-04T01:57:30;0.50;;;0.50;;
6452;SDS011;3259;51.080;13.712;2022-07-04T02:00:18;2.53;;;0.88;;
6452;SDS011;3259;51.080;13.712;2022-07-04T02:03:25;0.52;;;0.52;;
6452;SDS011;3259;51.080;13.712;2022-07-04T02:06:13;0.63;;;0.63;;
6452;SDS011;3259;51.080;13.712;2022-07-04T02:09:02;0.82;;;0.50;;
6452;SDS011;3259;51.080;13.712;2022-07-04T02:12:05;0.77;;;0.50;;
6452;SDS011;3259;51.080;13.712;2022-07-04T02:15:11;0.57;;;0.57;;
6452;SDS011;3259;51.080;13.712;2022-07-04T02:18:00;1.85;;;0.60;;
6452;SDS011;3259;51.080;13.712;2022-07-04T02:20:49;2.00;;;0.77;;
6452;SDS011;3259;51.080;13.712;2022-07-04T02:23:37;4.18;;;0.95;;
6452;SDS011;3259;51.080;13.712;2022-07-04T02:26:26;0.85;;;0.68;;
6452;SDS011;3259;51.080;13.712;2022-07-04T02:29:16;1.55;;;0.55;;
6452;SDS011;3259;51.080;13.712;2022-07-04T02:32:05;1.55;;;0.88;;
6452;SDS011;3259;51.080;13.712;2022-07-04T02:34:54;0.80;;;0.80;;
6452;SDS011;3259;51.080;13.712;2022-07-04T02:37:43;0.68;;;0.68;;
6452;SDS011;3259;51.080;13.712;2022-07-04T02:40:31;0.60;;;0.60;;
6452;SDS011;3259;51.080;13.712;2022-07-04T02:43:20;0.80;;;0.75;;
6452;SDS011;3259;51.080;13.712;2022-07-04T02:46:10;1.20;;;0.80;;
6452;SDS011;3259;51.080;13.712;2022-07-04T02:48:58;0.90;;;0.82;;
6452;SDS011;3259;51.080;13.712;2022-07-04T02:51:47;1.23;;;0.90;;
6452;SDS011;3259;51.080;13.712;2022-07-04T02:54:36;2.95;;;0.90;;
6452;SDS011;3259;51.080;13.712;2022-07-04T02:57:24;4.22;;;0.98;;
6452;SDS011;3259;51.080;13.712;2022-07-04T03:00:13;1.85;;;0.65;;
6452;SDS011;3259;51.080;13.712;2022-07-04T03:03:03;0.52;;;0.40;;
6452;SDS011;3259;51.080;13.712;2022-07-04T03:05:52;1.42;;;1.33;;
6452;SDS011;3259;51.080;13.712;2022-07-04T03:08:41;0.70;;;0.70;;
6452;SDS011;3259;51.080;13.712;2022-07-04T03:11:29;0.90;;;0.57;;
6452;SDS011;3259;51.080;13.712;2022-07-04T03:14:18;1.10;;;0.50;;
6452;SDS011;3259;51.080;13.712;2022-07-04T03:17:06;3.90;;;0.60;;
6452;SDS011;3259;51.080;13.712;2022-07-04T03:19:57;0.47;;;0.47;;
6452;SDS011;3259;51.080;13.712;2022-07-04T03:22:45;0.40;;;0.40;;
6452;SDS011;3259;51.080;13.712;2022-07-04T03:25:34;2.08;;;0.50;;
6452;SDS011;3259;51.080;13.712;2022-07-04T03:28:23;1.88;;;0.93;;
6452;SDS011;3259;51.080;13.712;2022-07-04T03:31:11;1.17;;;0.60;;
6452;SDS011;3259;51.080;13.712;2022-07-04T03:34:00;2.05;;;0.63;;
6452;SDS011;3259;51.080;13.712;2022-07-04T03:36:50;1.98;;;0.50;;
6452;SDS011;3259;51.080;13.712;2022-07-04T03:39:38;2.50;;;0.57;;
6452;SDS011;3259;51.080;13.712;2022-07-04T03:42:27;1.48;;;0.40;;
6452;SDS011;3259;51.080;13.712;2022-07-04T03:45:15;1.73;;;0.70;;
6452;SDS011;3259;51.080;13.712;2022-07-04T03:48:04;2.05;;;0.73;;
6452;SDS011;3259;51.080;13.712;2022-07-04T03:50:53;1.88;;;0.73;;
6452;SDS011;3259;51.080;13.712;2022-07-04T03:53:43;0.75;;;0.75;;
6452;SDS011;3259;51.080;13.712;2022-07-04T03:56:32;4.57;;;0.95;;
6452;SDS011;3259;51.080;13.712;2022-07-04T03:59:20;2.78;;;0.65;;
6452;SDS011;3259;51.080;13.712;2022-07-04T04:02:09;0.50;;;0.50;;
6452;SDS011;3259;51.080;13.712;2022-07-04T04:04:57;3.08;;;0.50;;
6452;SDS011;3259;51.080;13.712;2022-07-04T04:08:03;1.15;;;0.50;;
6452;SDS011;3259;51.080;13.712;2022-07-04T04:10:54;2.47;;;0.68;;
6452;SDS011;3259;51.080;13.712;2022-07-04T04:13:42;1.02;;;0.45;;
6452;SDS011;3259;51.080;13.712;2022-07-04T04:16:31;1.90;;;0.60;;
6452;SDS011;3259;51.080;13.712;2022-07-04T04:19:19;0.43;;;0.43;;
6452;SDS011;3259;51.080;13.712;2022-07-04T04:22:08;4.70;;;1.05;;
6452;SDS011;3259;51.080;13.712;2022-07-04T04:24:57;0.68;;;0.68;;
6452;SDS011;3259;51.080;13.712;2022-07-04T04:27:47;1.60;;;0.52;;
6452;SDS011;3259;51.080;13.712;2022-07-04T04:30:35;0.88;;;0.65;;
6452;SDS011;3259;51.080;13.712;2022-07-04T04:33:24;1.55;;;0.70;;
6452;SDS011;3259;51.080;13.712;2022-07-04T04:36:12;2.42;;;0.98;;
6452;SDS011;3259;51.080;13.712;2022-07-04T04:39:02;4.38;;;0.80;;
6452;SDS011;3259;51.080;13.712;2022-07-04T04:41:51;2.20;;;0.75;;
6452;SDS011;3259;51.080;13.712;2022-07-04T04:44:42;10.75;;;0.82;;
6452;SDS011;3259;51.080;13.712;2022-07-04T04:47:31;0.43;;;0.43;;
6452;SDS011;3259;51.080;13.712;2022-07-04T04:50:20;1.33;;;0.55;;
6452;SDS011;3259;51.080;13.712;2022-07-04T04:53:08;4.10;;;0.93;;
6452;SDS011;3259;51.080;13.712;2022-07-04T04:55:57;4.35;;;0.70;;
6452;SDS011;3259;51.080;13.712;2022-07-04T04:58:46;3.85;;;0.63;;
6452;SDS011;3259;51.080;13.712;2022-07-04T05:01:36;1.58;;;0.68;;
6452;SDS011;3259;51.080;13.712;2022-07-04T05:04:28;4.20;;;0.80;;
6452;SDS011;3259;51.080;13.712;2022-07-04T05:07:16;1.75;;;0.65;;
6452;SDS011;3259;51.080;13.712;2022-07-04T05:10:06;2.90;;;1.40;;
6452;SDS011;3259;51.080;13.712;2022-07-04T05:12:56;1.85;;;1.05;;
6452;SDS011;3259;51.080;13.712;2022-07-04T05:15:44;3.33;;;1.00;;
6452;SDS011;3259;51.080;13.712;2022-07-04T05:18:35;6.43;;;0.85;;
6452;SDS011;3259;51.080;13.712;2022-07-04T05:21:23;2.92;;;1.20;;
6452;SDS011;3259;51.080;13.712;2022-07-04T05:24:12;1.88;;;0.95;;
6452;SDS011;3259;51.080;13.712;2022-07-04T05:27:01;5.30;;;0.90;;
6452;SDS011;3259;51.080;13.712;2022-07-04T05:29:50;2.60;;;1.00;;
6452;SDS011;3259;51.080;13.712;2022-07-04T05:32:40;3.67;;;1.17;;
6452;SDS011;3259;51.080;13.712;2022-07-04T05:35:30;2.95;;;1.55;;
6452;SDS011;3259;51.080;13.712;2022-07-04T05:38:19;1.10;;;1.00;;
6452;SDS011;3259;51.080;13.712;2022-07-04T05:41:08;1.52;;;1.17;;
6452;SDS011;3259;51.080;13.712;2022-07-04T05:43:56;1.70;;;0.85;;
6452;SDS011;3259;51.080;13.712;2022-07-04T05:46:45;3.30;;;0.98;;
6452;SDS011;3259;51.080;13.712;2022-07-04T05:49:33;1.33;;;0.80;;
6452;SDS011;3259;51.080;13.712;2022-07-04T05:52:24;2.10;;;0.80;;
6452;SDS011;3259;51.080;13.712;2022-07-04T05:55:12;1.80;;;0.90;;
6452;SDS011;3259;51.080;13.712;2022-07-04T05:58:01;1.02;;;0.60;;
6452;SDS011;3259;51.080;13.712;2022-07-04T06:00:50;0.75;;;0.70;;
6452;SDS011;3259;51.080;13.712;2022-07-04T06:03:38;1.85;;;1.45;;
6452;SDS011;3259;51.080;13.712;2022-07-04T06:06:27;3.08;;;0.68;;
6452;SDS011;3259;51.080;13.712;2022-07-04T06:09:17;3.95;;;1.38;;
6452;SDS011;3259;51.080;13.712;2022-07-04T06:12:06;4.63;;;1.20;;
6452;SDS011;3259;51.080;13.712;2022-07-04T06:14:55;2.97;;;1.00;;
6452;SDS011;3259;51.080;13.712;2022-07-04T06:17:43;2.35;;;0.82;;
6452;SDS011;3259;51.080;13.712;2022-07-04T06:20:32;1.48;;;0.90;;
6452;SDS011;3259;51.080;13.712;2022-07-04T06:23:21;2.90;;;0.40;;
6452;SDS011;3259;51.080;13.712;2022-07-04T06:26:10;1.65;;;0.77;;
6452;SDS011;3259;51.080;13.712;2022-07-04T06:28:59;4.80;;;0.90;;
6452;SDS011;3259;51.080;13.712;2022-07-04T06:31:48;1.85;;;0.77;;
6452;SDS011;3259;51.080;13.712;2022-07-04T06:34:36;1.75;;;0.73;;
6452;SDS011;3259;51.080;13.712;2022-07-04T06:37:43;0.85;;;0.63;;
6452;SDS011;3259;51.080;13.712;2022-07-04T06:40:31;0.60;;;0.50;;
6452;SDS011;3259;51.080;13.712;2022-07-04T06:43:21;1.38;;;0.50;;
6452;SDS011;3259;51.080;13.712;2022-07-04T06:46:10;2.63;;;0.68;;
6452;SDS011;3259;51.080;13.712;2022-07-04T06:48:59;2.65;;;0.85;;
6452;SDS011;3259;51.080;13.712;2022-07-04T06:51:47;2.08;;;0.70;;
6452;SDS011;3259;51.080;13.712;2022-07-04T06:54:36;2.33;;;0.70;;
6452;SDS011;3259;51.080;13.712;2022-07-04T06:57:25;0.60;;;0.60;;
6452;SDS011;3259;51.080;13.712;2022-07-04T07:00:18;1.05;;;0.70;;
6452;SDS011;3259;51.080;13.712;2022-07-04T07:03:07;0.73;;;0.38;;
6452;SDS011;3259;51.080;13.712;2022-07-04T07:05:55;2.83;;;0.60;;
6452;SDS011;3259;51.080;13.712;2022-07-04T07:08:46;0.63;;;0.63;;
6452;SDS011;3259;51.080;13.712;2022-07-04T07:11:35;1.25;;;0.80;;
6452;SDS011;3259;51.080;13.712;2022-07-04T07:14:23;0.50;;;0.50;;
6452;SDS011;3259;51.080;13.712;2022-07-04T07:17:13;1.20;;;0.70;;
6452;SDS011;3259;51.080;13.712;2022-07-04T07:20:03;0.75;;;0.60;;
6452;SDS011;3259;51.080;13.712;2022-07-04T07:22:52;1.50;;;0.60;;
6452;SDS011;3259;51.080;13.712;2022-07-04T07:25:41;1.63;;;0.40;;
6452;SDS011;3259;51.080;13.712;2022-07-04T07:28:29;0.55;;;0.40;;
6452;SDS011;3259;51.080;13.712;2022-07-04T07:31:18;3.88;;;0.45;;
6452;SDS011;3259;51.080;13.712;2022-07-04T07:34:08;1.17;;;0.50;;
6452;SDS011;3259;51.080;13.712;2022-07-04T07:36:56;0.47;;;0.47;;
6452;SDS011;3259;51.080;13.712;2022-07-04T07:39:45;0.52;;;0.45;;
6452;SDS011;3259;51.080;13.712;2022-07-04T07:42:34;1.10;;;0.40;;
6452;SDS011;3259;51.080;13.712;2022-07-04T07:45:23;0.75;;;0.32;;
6452;SDS011;3259;51.080;13.712;2022-07-04T07:48:12;2.70;;;0.38;;
6452;SDS011;3259;51.080;13.712;2022-07-04T07:51:02;0.75;;;0.50;;
6452;SDS011;3259;51.080;13.712;2022-07-04T07:53:51;2.35;;;0.38;;
6452;SDS011;3259;51.080;13.712;2022-07-04T07:56:59;1.75;;;0.30;;
6452;SDS011;3259;51.080;13.712;2022-07-04T07:59:48;0.50;;;0.40;;
6452;SDS011;3259;51.080;13.712;2022-07-04T08:02:36;0.63;;;0.30;;
6452;SDS011;3259;51.080;13.712;2022-07-04T08:05:43;2.13;;;0.43;;
6452;SDS011;3259;51.080;13.712;2022-07-04T08:08:33;1.58;;;0.30;;
6452;SDS011;3259;51.080;13.712;2022-07-04T08:11:21;0.40;;;0.20;;
6452;SDS011;3259;51.080;13.712;2022-07-04T08:14:10;1.55;;;0.40;;
6452;SDS011;3259;51.080;13.712;2022-07-04T08:16:59;0.55;;;0.30;;
6452;SDS011;3259;51.080;13.712;2022-07-04T08:19:47;0.90;;;0.40;;
6452;SDS011;3259;51.080;13.712;2022-07-04T08:22:36;0.30;;;0.30;;
6452;SDS011;3259;51.080;13.712;2022-07-04T08:25:26;0.52;;;0.50;;
6452;SDS011;3259;51.080;13.712;2022-07-04T08:28:15;0.20;;;0.20;;
6452;SDS011;3259;51.080;13.712;2022-07-04T08:31:03;0.95;;;0.52;;
6452;SDS011;3259;51.080;13.712;2022-07-04T08:33:52;0.30;;;0.30;;
6452;SDS011;3259;51.080;13.712;2022-07-04T08:36:40;1.08;;;0.50;;
6452;SDS011;3259;51.080;13.712;2022-07-04T08:39:29;0.90;;;0.45;;
6452;SDS011;3259;51.080;13.712;2022-07-04T08:42:20;0.43;;;0.30;;
6452;SDS011;3259;51.080;13.712;2022-07-04T08:45:10;0.75;;;0.20;;
6452;SDS011;3259;51.080;13.712;2022-07-04T08:48:01;0.30;;;0.30;;
6452;SDS011;3259;51.080;13.712;2022-07-04T08:50:51;0.13;;;0.13;;
6452;SDS011;3259;51.080;13.712;2022-07-04T08:53:49;0.30;;;0.30;;
6452;SDS011;3259;51.080;13.712;2022-07-04T08:56:41;0.32;;;0.30;;
6452;SDS011;3259;51.080;13.712;2022-07-04T08:59:49;1.38;;;0.30;;
6452;SDS011;3259;51.080;13.712;2022-07-04T09:02:38;0.20;;;0.20;;
6452;SDS011;3259;51.080;13.712;2022-07-04T09:05:26;0.77;;;0.20;;
6452;SDS011;3259;51.080;13.712;2022-07-04T09:08:15;0.50;;;0.20;;
6452;SDS011;3259;51.080;13.712;2022-07-04T09:11:04;0.38;;;0.20;;
6452;SDS011;3259;51.080;13.712;2022-07-04T09:13:53;0.98;;;0.20;;
6452;SDS011;3259;51.080;13.712;2022-07-04T09:16:43;0.32;;;0.10;;
6452;SDS011;3259;51.080;13.712;2022-07-04T09:19:35;1.17;;;0.20;;
6452;SDS011;3259;51.080;13.712;2022-07-04T09:22:24;0.10;;;0.10;;
6452;SDS011;3259;51.080;13.712;2022-07-04T09:25:15;0.20;;;0.20;;
6452;SDS011;3259;51.080;13.712;2022-07-04T09:28:04;0.57;;;0.28;;
6452;SDS011;3259;51.080;13.712;2022-07-04T09:30:53;0.25;;;0.10;;
6452;SDS011;3259;51.080;13.712;2022-07-04T09:33:47;0.10;;;0.10;;
6452;SDS011;3259;51.080;13.712;2022-07-04T09:36:39;0.70;;;0.20;;
6452;SDS011;3259;51.080;13.712;2022-07-04T09:39:29;0.50;;;0.20;;
6452;SDS011;3259;51.080;13.712;2022-07-04T09:42:17;1.70;;;0.20;;
6452;SDS011;3259;51.080;13.712;2022-07-04T09:45:08;0.30;;;0.30;;
6452;SDS011;3259;51.080;13.712;2022-07-04T09:47:58;0.10;;;0.10;;
6452;SDS011;3259;51.080;13.712;2022-07-04T09:50:48;3.70;;;0.30;;
6452;SDS011;3259;51.080;13.712;2022-07-04T09:53:37;0.10;;;0.10;;
6452;SDS011;3259;51.080;13.712;2022-07-04T09:56:38;0.55;;;0.20;;
6452;SDS011;3259;51.080;13.712;2022-07-04T09:59:28;0.22;;;0.22;;
6452;SDS011;3259;51.080;13.712;2022-07-04T10:02:17;0.40;;;0.13;;
6452;SDS011;3259;51.080;13.712;2022-07-04T10:05:07;0.20;;;0.10;;
6452;SDS011;3259;51.080;13.712;2022-07-04T10:07:57;0.20;;;0.20;;
6452;SDS011;3259;51.080;13.712;2022-07-04T10:10:46;3.20;;;0.20;;
6452;SDS011;3259;51.080;13.712;2022-07-04T10:13:35;1.75;;;0.10;;
6452;SDS011;3259;51.080;13.712;2022-07-04T10:16:24;0.10;;;0.10;;
6452;SDS011;3259;51.080;13.712;2022-07-04T10:19:13;0.82;;;0.10;;
6452;SDS011;3259;51.080;13.712;2022-07-04T10:22:01;0.28;;;0.20;;
6452;SDS011;3259;51.080;13.712;2022-07-04T10:24:53;0.65;;;0.10;;
6452;SDS011;3259;51.080;13.712;2022-07-04T10:27:41;0.32;;;0.10;;
6452;SDS011;3259;51.080;13.712;2022-07-04T10:30:32;0.20;;;0.20;;
6452;SDS011;3259;51.080;13.712;2022-07-04T10:33:26;0.08;;;0.05;;
6452;SDS011;3259;51.080;13.712;2022-07-04T10:36:16;0.38;;;0.13;;
6452;SDS011;3259;51.080;13.712;2022-07-04T10:39:05;0.17;;;0.17;;
6452;SDS011;3259;51.080;13.712;2022-07-04T10:41:58;0.10;;;0.10;;
6452;SDS011;3259;51.080;13.712;2022-07-04T10:44:51;0.10;;;0.10;;
6452;SDS011;3259;51.080;13.712;2022-07-04T10:47:40;0.13;;;0.10;;
6452;SDS011;3259;51.080;13.712;2022-07-04T10:50:51;0.32;;;0.17;;
6452;SDS011;3259;51.080;13.712;2022-07-04T10:53:57;0.10;;;0.10;;
6452;SDS011;3259;51.080;13.712;2022-07-04T10:56:47;0.22;;;0.10;;
6452;SDS011;3259;51.080;13.712;2022-07-04T10:59:39;0.60;;;0.10;;
6452;SDS011;3259;51.080;13.712;2022-07-04T11:02:28;0.10;;;0.10;;
6452;SDS011;3259;51.080;13.712;2022-07-04T11:05:26;0.40;;;0.10;;
6452;SDS011;3259;51.080;13.712;2022-07-04T11:08:19;0.20;;;0.10;;
6452;SDS011;3259;51.080;13.712;2022-07-04T11:11:11;0.00;;;0.00;;
6452;SDS011;3259;51.080;13.712;2022-07-04T11:14:35;0.10;;;0.00;;
6452;SDS011;3259;51.080;13.712;2022-07-04T11:17:27;0.10;;;0.10;;
6452;SDS011;3259;51.080;13.712;2022-07-04T11:20:19;1.95;;;0.20;;
6452;SDS011;3259;51.080;13.712;2022-07-04T11:23:10;0.30;;;0.10;;
6452;SDS011;3259;51.080;13.712;2022-07-04T11:25:59;1.65;;;0.05;;
6452;SDS011;3259;51.080;13.712;2022-07-04T11:28:49;0.00;;;0.00;;
6452;SDS011;3259;51.080;13.712;2022-07-04T11:31:40;0.20;;;0.10;;
6452;SDS011;3259;51.080;13.712;2022-07-04T11:34:30;0.57;;;0.25;;
6452;SDS011;3259;51.080;13.712;2022-07-04T11:37:20;0.63;;;0.10;;
6452;SDS011;3259;51.080;13.712;2022-07-04T11:40:09;5.70;;;0.32;;
6452;SDS011;3259;51.080;13.712;2022-07-04T11:43:16;0.10;;;0.10;;
6452;SDS011;3259;51.080;13.712;2022-07-04T11:46:27;0.10;;;0.10;;
6452;SDS011;3259;51.080;13.712;2022-07-04T11:49:17;0.10;;;0.03;;
6452;SDS011;3259;51.080;13.712;2022-07-04T11:52:07;0.05;;;0.05;;
6452;SDS011;3259;51.080;13.712;2022-07-04T11:54:55;0.10;;;0.10;;
6452;SDS011;3259;51.080;13.712;2022-07-04T11:57:45;0.17;;;0.10;;
6452;SDS011;3259;51.080;13.712;2022-07-04T12:00:34;0.05;;;0.05;;
6452;SDS011;3259;51.080;13.712;2022-07-04T12:03:23;0.10;;;0.10;;
6452;SDS011;3259;51.080;13.712;2022-07-04T12:06:13;0.10;;;0.10;;
6452;SDS011;3259;51.080;13.712;2022-07-04T12:09:01;0.43;;;0.10;;
6452;SDS011;3259;51.080;13.712;2022-07-04T12:11:56;0.20;;;0.10;;
6452;SDS011;3259;51.080;13.712;2022-07-04T12:14:58;0.55;;;0.00;;
6452;SDS011;3259;51.080;13.712;2022-07-04T12:17:50;0.52;;;0.10;;
6452;SDS011;3259;51.080;13.712;2022-07-04T12:20:40;0.10;;;0.10;;
6452;SDS011;3259;51.080;13.712;2022-07-04T12:23:30;0.10;;;0.10;;
6452;SDS011;3259;51.080;13.712;2022-07-04T12:26:22;0.55;;;0.10;;
6452;SDS011;3259;51.080;13.712;2022-07-04T12:29:11;0.10;;;0.10;;
6452;SDS011;3259;51.080;13.712;2022-07-04T12:32:00;0.20;;;0.00;;
6452;SDS011;3259;51.080;13.712;2022-07-04T12:34:49;2.42;;;0.10;;
6452;SDS011;3259;51.080;13.712;2022-07-04T12:37:37;0.10;;;0.10;;
6452;SDS011;3259;51.080;13.712;2022-07-04T12:40:27;0.38;;;0.10;;
6452;SDS011;3259;51.080;13.712;2022-07-04T12:43:16;0.00;;;0.00;;
6452;SDS011;3259;51.080;13.712;2022-07-04T12:46:05;0.10;;;0.10;;
6452;SDS011;3259;51.080;13.712;2022-07-04T12:48:55;0.43;;;0.00;;
6452;SDS011;3259;51.080;13.712;2022-07-04T12:51:44;0.00;;;0.00;;
6452;SDS011;3259;51.080;13.712;2022-07-04T12:54:33;0.00;;;0.00;;
6452;SDS011;3259;51.080;13.712;2022-07-04T12:57:24;0.63;;;0.00;;
6452;SDS011;3259;51.080;13.712;2022-07-04T13:00:12;0.35;;;0.10;;
6452;SDS011;3259;51.080;13.712;2022-07-04T13:03:21;2.20;;;0.00;;
6452;SDS011;3259;51.080;13.712;2022-07-04T13:06:10;0.10;;;0.10;;
6452;SDS011;3259;51.080;13.712;2022-07-04T13:08:59;1.63;;;0.00;;
6452;SDS011;3259;51.080;13.712;2022-07-04T13:11:47;0.55;;;0.10;;
6452;SDS011;3259;51.080;13.712;2022-07-04T13:14:55;4.15;;;0.30;;
6452;SDS011;3259;51.080;13.712;2022-07-04T13:17:45;0.55;;;0.13;;
6452;SDS011;3259;51.080;13.712;2022-07-04T13:20:33;0.10;;;0.10;;
6452;SDS011;3259;51.080;13.712;2022-07-04T13:23:22;3.50;;;0.10;;
6452;SDS011;3259;51.080;13.712;2022-07-04T13:26:11;0.10;;;0.10;;
6452;SDS011;3259;51.080;13.712;2022-07-04T13:29:00;0.35;;;0.10;;
6452;SDS011;3259;51.080;13.712;2022-07-04T13:31:50;0.22;;;0.10;;
6452;SDS011;3259;51.080;13.712;2022-07-04T13:34:39;1.35;;;0.10;;
6452;SDS011;3259;51.080;13.712;2022-07-04T13:37:28;2.08;;;0.20;;
6452;SDS011;3259;51.080;13.712;2022-07-04T13:40:16;0.25;;;0.20;;
6452;SDS011;3259;51.080;13.712;2022-07-04T13:43:05;0.45;;;0.10;;
6452;SDS011;3259;51.080;13.712;2022-07-04T13:45:57;0.10;;;0.10;;
6452;SDS011;3259;51.080;13.712;2022-07-04T13:48:48;0.55;;;0.10;;
6452;SDS011;3259;51.080;13.712;2022-07-04T13:51:40;0.03;;;0.00;;
6452;SDS011;3259;51.080;13.712;2022-07-04T13:54:29;4.78;;;0.20;;
6452;SDS011;3259;51.080;13.712;2022-07-04T13:57:18;1.20;;;0.17;;
6452;SDS011;3259;51.080;13.712;2022-07-04T14:00:07;0.20;;;0.10;;
6452;SDS011;3259;51.080;13.712;2022-07-04T14:02:57;7.47;;;0.80;;
6452;SDS011;3259;51.080;13.712;2022-07-04T14:05:47;1.00;;;0.20;;
6452;SDS011;3259;51.080;13.712;2022-07-04T14:08:36;4.55;;;0.20;;
6452;SDS011;3259;51.080;13.712;2022-07-04T14:11:25;4.70;;;0.30;;
6452;SDS011;3259;51.080;13.712;2022-07-04T14:14:13;0.60;;;0.17;;
6452;SDS011;3259;51.080;13.712;2022-07-04T14:17:02;0.75;;;0.13;;
6452;SDS011;3259;51.080;13.712;2022-07-04T14:20:11;0.75;;;0.28;;
6452;SDS011;3259;51.080;13.712;2022-07-04T14:23:01;1.88;;;0.08;;
6452;SDS011;3259;51.080;13.712;2022-07-04T14:25:50;1.10;;;0.20;;
6452;SDS011;3259;51.080;13.712;2022-07-04T14:28:38;0.35;;;0.20;;
6452;SDS011;3259;51.080;13.712;2022-07-04T14:31:27;2.80;;;0.08;;
6452;SDS011;3259;51.080;13.712;2022-07-04T14:34:17;0.43;;;0.10;;
6452;SDS011;3259;51.080;13.712;2022-07-04T14:37:06;2.83;;;0.40;;
6452;SDS011;3259;51.080;13.712;2022-07-04T14:39:56;2.03;;;0.20;;
6452;SDS011;3259;51.080;13.712;2022-07-04T14:42:45;1.15;;;0.10;;
6452;SDS011;3259;51.080;13.712;2022-07-04T14:45:34;1.85;;;0.10;;
6452;SDS011;3259;51.080;13.712;2022-07-04T14:48:23;0.63;;;0.13;;
6452;SDS011;3259;51.080;13.712;2022-07-04T14:51:12;2.08;;;0.17;;
6452;SDS011;3259;51.080;13.712;2022-07-04T14:54:00;1.85;;;0.13;;
6452;SDS011;3259;51.080;13.712;2022-07-04T14:56:51;3.75;;;0.28;;
6452;SDS011;3259;51.080;13.712;2022-07-04T14:59:40;0.98;;;0.13;;
6452;SDS011;3259;51.080;13.712;2022-07-04T15:02:29;0.10;;;0.00;;
6452;SDS011;3259;51.080;13.712;2022-07-04T15:05:17;0.47;;;0.10;;
6452;SDS011;3259;51.080;13.712;2022-07-04T15:08:06;0.25;;;0.10;;
6452;SDS011;3259;51.080;13.712;2022-07-04T15:10:55;1.23;;;0.10;;
6452;SDS011;3259;51.080;13.712;2022-07-04T15:13:47;0.22;;;0.20;;
6452;SDS011;3259;51.080;13.712;2022-07-04T15:16:36;17.20;;;1.25;;
6452;SDS011;3259;51.080;13.712;2022-07-04T15:19:24;32.10;;;2.28;;
6452;SDS011;3259;51.080;13.712;2022-07-04T15:22:13;6.97;;;0.75;;
6452;SDS011;3259;51.080;13.712;2022-07-04T15:25:19;15.68;;;0.82;;
6452;SDS011;3259;51.080;13.712;2022-07-04T15:28:08;10.68;;;0.60;;
6452;SDS011;3259;51.080;13.712;2022-07-04T15:30:58;4.45;;;0.60;;
6452;SDS011;3259;51.080;13.712;2022-07-04T15:33:47;6.53;;;0.50;;
6452;SDS011;3259;51.080;13.712;2022-07-04T15:36:36;3.90;;;0.60;;
6452;SDS011;3259;51.080;13.712;2022-07-04T15:39:25;3.30;;;0.50;;
6452;SDS011;3259;51.080;13.712;2022-07-04T15:42:14;8.40;;;0.55;;
6452;SDS011;3259;51.080;13.712;2022-07-04T15:45:02;5.40;;;0.77;;
6452;SDS011;3259;51.080;13.712;2022-07-04T15:47:53;5.15;;;0.20;;
6452;SDS011;3259;51.080;13.712;2022-07-04T15:50:42;7.97;;;0.22;;
6452;SDS011;3259;51.080;13.712;2022-07-04T15:53:30;5.68;;;0.25;;
6452;SDS011;3259;51.080;13.712;2022-07-04T15:56:19;0.65;;;0.35;;
6452;SDS011;3259;51.080;13.712;2022-07-04T15:59:08;0.65;;;0.38;;
6452;SDS011;3259;51.080;13.712;2022-07-04T16:01:57;2.33;;;0.25;;
6452;SDS011;3259;51.080;13.712;2022-07-04T16:04:47;1.10;;;0.30;;
6452;SDS011;3259;51.080;13.712;2022-07-04T16:07:36;1.48;;;0.20;;
6452;SDS011;3259;51.080;13.712;2022-07-04T16:10:24;6.78;;;0.17;;
6452;SDS011;3259;51.080;13.712;2022-07-04T16:13:14;0.38;;;0.10;;
6452;SDS011;3259;51.080;13.712;2022-07-04T16:16:02;1.65;;;0.20;;
6452;SDS011;3259;51.080;13.712;2022-07-04T16:18:51;4.72;;;0.77;;
6452;SDS011;3259;51.080;13.712;2022-07-04T16:21:42;0.28;;;0.22;;
6452;SDS011;3259;51.080;13.712;2022-07-04T16:24:30;0.68;;;0.10;;
6452;SDS011;3259;51.080;13.712;2022-07-04T16:27:19;0.50;;;0.20;;
6452;SDS011;3259;51.080;13.712;2022-07-04T16:30:08;1.55;;;0.13;;
6452;SDS011;3259;51.080;13.712;2022-07-04T16:32:58;0.30;;;0.13;;
6452;SDS011;3259;51.080;13.712;2022-07-04T16:35:47;0.15;;;0.13;;
6452;SDS011;3259;51.080;13.712;2022-07-04T16:38:38;1.30;;;0.20;;
6452;SDS011;3259;51.080;13.712;2022-07-04T16:41:27;1.33;;;0.10;;
6452;SDS011;3259;51.080;13.712;2022-07-04T16:44:16;0.60;;;0.20;;
6452;SDS011;3259;51.080;13.712;2022-07-04T16:47:08;1.52;;;0.17;;
6452;SDS011;3259;51.080;13.712;2022-07-04T16:49:56;0.00;;;0.00;;
6452;SDS011;3259;51.080;13.712;2022-07-04T16:52:45;0.10;;;0.10;;
6452;SDS011;3259;51.080;13.712;2022-07-04T16:55:35;1.02;;;0.10;;
6452;SDS011;3259;51.080;13.712;2022-07-04T16:58:24;1.35;;;0.10;;
6452;SDS011;3259;51.080;13.712;2022-07-04T17:01:12;1.15;;;0.10;;
6452;SDS011;3259;51.080;13.712;2022-07-04T17:04:01;0.30;;;0.30;;
6452;SDS011;3259;51.080;13.712;2022-07-04T17:06:50;1.13;;;0.22;;
6452;SDS011;3259;51.080;13.712;2022-07-04T17:09:38;1.63;;;0.15;;
6452;SDS011;3259;51.080;13.712;2022-07-04T17:12:28;0.20;;;0.10;;
6452;SDS011;3259;51.080;13.712;2022-07-04T17:15:17;1.00;;;0.20;;
6452;SDS011;3259;51.080;13.712;2022-07-04T17:18:06;0.10;;;0.10;;
6452;SDS011;3259;51.080;13.712;2022-07-04T17:20:55;0.22;;;0.10;;